• Join FlightAware (Why Join?)
  • Login
  • US Flag 
11:36AM EST


 

Airport Tracker/Info


-or-


 

Live Flight TrackerFlight Track Log ✈ LXJ262 ✈ 30-Apr-2013 ✈ KLEX - KJYO

Flight Track Log - Related Links

Times and Time Zones

All times are in EDT time to prevent confusion due to time zone crossing. See the LXJ262 flight status page for this flight to view local times or setup timezone preferences in your user account.

Time Position Orientation Groundspeed Altitude Reporting Facility
EDT Latitude Longitude Course Direction KTS MPH feet Rate Location/Type
11:57AM 38.0094 -84.6325 166° South 185 213 41,000  Level Indianapolis Center
11:58AM 37.9642 -84.6186 166° South 196 226 8,300 -13,680 Descending Indianapolis Center
11:59AM 37.9514 -84.5433 102° East 228 262 12,800 3,120 Climbing Indianapolis Center
12:00PM 37.9642 -84.4511 80° East 266 306 14,700 1,020 Climbing Indianapolis Center
12:01PM 37.9889 -84.2908 79° East 394 453 15,000 960 Climbing Indianapolis Center
12:02PM 38.0103 -84.1519 79° East 399 459 16,800 1,380 Climbing Indianapolis Center
12:03PM 38.0328 -84.0075 79° East 411 473 17,900 540 Climbing Indianapolis Center
12:04PM 38.0550 -83.8628 79° East 417 480 18,000 180 Climbing Indianapolis Center
12:05PM 38.0775 -83.7161 79° East 421 484 18,300 900 Climbing Indianapolis Center
12:06PM 38.0992 -83.5650 80° East 432 497 19,900 1,680 Climbing Indianapolis Center
12:07PM 38.1219 -83.4089 79° East 444 511 21,800 2,040 Climbing Indianapolis Center
12:08PM 38.1492 -83.2214 79° East 460 529 24,200 1,980 Climbing Indianapolis Center
12:09PM 38.1664 -83.0564 82° East 468 539 26,000 1,800 Climbing Indianapolis Center
12:10PM 38.1789 -82.8869 85° East 478 550 28,000 1,440 Climbing Indianapolis Center
12:11PM 38.1917 -82.7178 84° East 478 550 29,000 480 Climbing Indianapolis Center
12:12PM 38.2031 -82.5492 85° East 478 550 29,000  Level Indianapolis Center
12:13PM 38.2153 -82.3697 85° East 480 552 29,000  Level Indianapolis Center
12:14PM 38.2269 -82.2017 85° East 479 551 29,000  Level Indianapolis Center
12:16PM 38.2394 -82.0347 85° East 475 547 29,000  Level Indianapolis Center
12:17PM 38.2506 -81.8658 85° East 482 555 29,000  Level Indianapolis Center
12:18PM 38.2614 -81.6961 85° East 483 556 29,000  Level Indianapolis Center
12:19PM 38.2736 -81.4928 86° East 485 558 29,000  Level Indianapolis Center
12:20PM 38.2833 -81.3244 86° East 483 556 29,000  Level Indianapolis Center
12:21PM 38.2933 -81.1547 86° East 485 558 29,000  Level Indianapolis Center
12:21PM 38.2956 -81.0869 88° East 484 557 29,000  Level Washington Center
12:22PM 38.3075 -80.9158 85° East 484 557 29,000  Level Washington Center
12:23PM 38.3128 -80.7469 88° East 477 549 29,000  Level Washington Center
12:24PM 38.3075 -80.5744 92° East 477 549 29,000  Level Washington Center
12:25PM 38.3297 -80.3881 81° East 478 550 29,000  Level Washington Center
12:26PM 38.3656 -80.2208 75° East 478 550 29,000  Level Washington Center
12:27PM 38.3989 -80.0558 75° East 483 556 29,000  Level Washington Center
12:28PM 38.4319 -79.8908 76° East 483 556 29,000 -120 Level Washington Center
12:29PM 38.4672 -79.7233 75° East 483 556 28,800 -1,140 Descending Washington Center
12:30PM 38.4992 -79.5739 75° East 489 563 26,800 -2,340 Descending Washington Center
12:31PM 38.5294 -79.4189 76° East 476 548 24,200 -2,220 Descending Washington Center
12:32PM 38.5547 -79.2767 77° East 441 507 22,400 -1,500 Descending Washington Center
12:33PM 38.5758 -79.1239 80° East 407 468 21,200 -1,380 Descending Washington Center
12:34PM 38.6006 -78.9894 77° East 394 453 19,700 -1,080 Descending Washington Center
12:35PM 38.6211 -78.8575 79° East 381 438 19,100 -360 Descending Washington Center
12:36PM 38.6447 -78.7469 75° East 376 433 19,000 -900 Descending Washington Center
12:37PM 38.6728 -78.6336 72° East 348 400 17,400 -2,340 Descending Washington Center
12:38PM 38.6983 -78.5231 73° East 329 379 14,500 -2,820 Descending Washington Center
12:39PM 38.7217 -78.4228 73° East 307 353 11,900 -2,400 Descending Washington Center
12:40PM 38.7694 -78.3422 53° Northeast 292 336 9,700 -2,100 Descending Washington Center
12:41PM 38.8311 -78.2831 37° Northeast 275 316 7,700 -2,040 Descending Washington Center
12:42PM 38.8928 -78.2267 35° Northeast 265 305 5,700 -1,380 Descending Washington Center
12:43PM 38.9525 -78.1675 38° Northeast 265 305 5,000 -360 Descending Washington Center
12:44PM 39.0036 -78.1211 35° Northeast 250 288 5,000  Level Washington Center
12:45PM 39.0567 -78.0750 34° Northeast 237 273 5,100 -180 Climbing Washington Center
12:46PM 39.0911 -78.0172 52° Northeast 215 247 4,700 -720 Descending Washington Center
12:48PM 39.1500 -77.8833 60° Northeast 203 234 3,000 -600 Descending Potomac TRACON
12:49PM 39.1833 -77.8167 57° Northeast 197 227 3,000  Level Potomac TRACON
12:50PM 39.2167 -77.7667 49° Northeast 191 220 3,000  Level Potomac TRACON
12:51PM 39.2333 -77.7000 72° East 200 230 3,100  Climbing Potomac TRACON
12:52PM 39.2333 -77.6333 90° East 188 216 3,000 -240 Descending Potomac TRACON
12:53PM 39.1833 -77.6000 153° Southeast 158 182 2,600 -660 Descending Potomac TRACON
12:54PM 39.1500 -77.5833 159° South 152 175 1,700 -900 Descending Potomac TRACON
12:55PM 39.1167 -77.5667 159° South 151 174 1,000 -600 Descending Potomac TRACON
12:56PM 39.0667 -77.5500 165° South 144 166 600 -240 Descending Potomac TRACON
12:57PM 39.0667 -77.5500 165° South 129 148 600  Level Potomac TRACON
12:59PM 39.0780 -77.5575 180° South  Level Estimated
01:06PM 39.0780 -77.5575 180° South  Level Estimated
01:07PM 39.0780 -77.5575 180° South  Level Estimated
01:08PM 39.0780 -77.5575 180° South  Level Estimated